createdAt,value
2017-10-22T00:01:46.497Z,12.10
2017-10-22T00:04:14.708Z,12.10
2017-10-22T00:06:42.163Z,12.10
2017-10-22T00:09:09.620Z,12.10
2017-10-22T00:14:11.041Z,12.00
2017-10-22T00:16:38.513Z,12.10
2017-10-22T00:19:05.938Z,12.10
2017-10-22T00:21:33.385Z,12.10
2017-10-22T00:24:00.826Z,12.10
2017-10-22T00:26:28.292Z,12.10
2017-10-22T00:28:55.745Z,12.10
2017-10-22T00:31:23.202Z,12.10
2017-10-22T00:33:50.637Z,12.10
2017-10-22T00:36:18.094Z,12.20
2017-10-22T00:38:45.522Z,12.20
2017-10-22T00:41:12.964Z,12.30
2017-10-22T00:43:40.399Z,12.40
2017-10-22T00:46:07.858Z,12.40
2017-10-22T00:48:35.318Z,12.40
2017-10-22T00:51:03.521Z,12.40
2017-10-22T00:53:30.955Z,12.40
2017-10-22T00:55:58.413Z,12.40
2017-10-22T00:58:25.863Z,12.40
2017-10-22T01:00:53.315Z,12.40
2017-10-22T01:03:20.784Z,12.30
2017-10-22T01:05:48.236Z,12.40
2017-10-22T01:08:16.433Z,12.30
2017-10-22T01:10:43.880Z,12.30
2017-10-22T01:13:11.337Z,12.40
2017-10-22T01:15:38.772Z,12.40
2017-10-22T01:18:06.228Z,12.30
2017-10-22T01:20:34.430Z,12.20
2017-10-22T01:23:01.876Z,12.20
2017-10-22T01:25:29.315Z,12.20
2017-10-22T01:27:56.779Z,12.20
2017-10-22T01:30:24.982Z,12.10
2017-10-22T01:32:52.425Z,12.10
2017-10-22T01:35:19.860Z,12.00
2017-10-22T01:37:48.069Z,12.10
2017-10-22T01:40:15.508Z,12.00
2017-10-22T01:42:42.952Z,12.10
2017-10-22T01:45:10.545Z,12.10
2017-10-22T01:47:38.769Z,12.20
2017-10-22T01:50:06.203Z,12.10
2017-10-22T01:52:33.662Z,12.20
2017-10-22T01:55:01.084Z,12.20
2017-10-22T01:57:28.528Z,12.20
2017-10-22T01:59:55.985Z,12.20
2017-10-22T02:02:23.422Z,12.20
2017-10-22T02:04:50.882Z,12.10
2017-10-22T02:07:18.341Z,12.10
2017-10-22T02:09:46.576Z,12.00
2017-10-22T02:12:14.032Z,12.00
2017-10-22T02:14:41.456Z,12.00
2017-10-22T02:17:08.894Z,12.00
2017-10-22T02:19:37.099Z,12.10
2017-10-22T02:22:04.537Z,12.00
2017-10-22T02:24:31.973Z,12.10
2017-10-22T02:26:59.444Z,12.00
2017-10-22T02:29:26.884Z,12.00
2017-10-22T02:31:54.333Z,11.90
2017-10-22T02:34:21.813Z,11.90
2017-10-22T02:36:50.007Z,11.90
2017-10-22T02:39:17.593Z,11.90
2017-10-22T02:41:45.055Z,11.90
2017-10-22T02:44:13.261Z,11.90
2017-10-22T02:46:40.715Z,11.90
2017-10-22T02:49:08.156Z,11.90
2017-10-22T02:51:35.598Z,11.90
2017-10-22T02:54:03.057Z,11.90
2017-10-22T02:56:30.516Z,11.90
2017-10-22T02:58:58.021Z,11.80
2017-10-22T03:01:25.460Z,11.80
2017-10-22T03:03:52.914Z,11.80
2017-10-22T03:06:20.372Z,11.80
2017-10-22T03:08:47.852Z,11.80
2017-10-22T03:11:16.035Z,11.60
2017-10-22T03:13:43.529Z,11.60
2017-10-22T03:16:10.988Z,11.70
2017-10-22T03:18:39.187Z,11.70
2017-10-22T03:21:06.638Z,11.70
2017-10-22T03:23:34.097Z,11.70
2017-10-22T03:26:01.531Z,11.70
2017-10-22T03:28:28.988Z,11.80
2017-10-22T03:30:57.199Z,11.80
2017-10-22T03:33:24.651Z,11.80
2017-10-22T03:35:52.123Z,11.70
2017-10-22T03:38:19.565Z,11.80
2017-10-22T03:40:47.008Z,11.80
2017-10-22T03:43:14.463Z,11.70
2017-10-22T03:45:42.670Z,11.60
2017-10-22T03:48:10.126Z,11.60
2017-10-22T03:50:37.565Z,11.70
2017-10-22T03:53:05.013Z,11.70
2017-10-22T03:55:32.458Z,11.70
2017-10-22T03:57:59.919Z,11.60
2017-10-22T04:00:27.358Z,11.60
2017-10-22T04:02:54.875Z,11.60
2017-10-22T04:05:22.304Z,11.60
2017-10-22T04:07:49.759Z,11.60
2017-10-22T04:10:17.222Z,11.60
2017-10-22T04:12:44.682Z,11.60
2017-10-22T04:15:12.136Z,11.60
2017-10-22T04:17:40.348Z,11.70
2017-10-22T04:20:07.788Z,11.70
2017-10-22T04:22:35.241Z,11.70
2017-10-22T04:25:02.677Z,11.70
2017-10-22T04:27:30.138Z,11.70
2017-10-22T04:29:58.344Z,11.70
2017-10-22T04:32:25.786Z,11.70
2017-10-22T04:34:53.242Z,11.60
2017-10-22T04:37:20.676Z,11.60
2017-10-22T04:39:48.137Z,11.60
2017-10-22T04:42:15.592Z,11.60
2017-10-22T04:44:43.666Z,11.60
2017-10-22T04:47:11.884Z,11.60
2017-10-22T04:49:39.317Z,11.60
2017-10-22T04:52:06.760Z,11.70
2017-10-22T04:54:34.208Z,11.70
2017-10-22T04:57:01.689Z,11.70
2017-10-22T04:59:29.131Z,11.70
2017-10-22T05:01:56.597Z,11.70
2017-10-22T05:04:24.826Z,11.60
2017-10-22T05:06:52.293Z,11.60
2017-10-22T05:09:20.514Z,11.70
2017-10-22T05:11:47.962Z,11.60
2017-10-22T05:14:15.395Z,11.60
2017-10-22T05:16:42.856Z,11.40
2017-10-22T05:19:10.331Z,11.40
2017-10-22T05:21:38.523Z,11.40
2017-10-22T05:24:06.988Z,11.40
2017-10-22T05:26:34.424Z,11.40
2017-10-22T05:29:01.868Z,11.40
2017-10-22T05:31:29.341Z,11.40
2017-10-22T05:33:56.781Z,11.50
2017-10-22T05:36:24.252Z,11.40
2017-10-22T05:38:52.456Z,11.50
2017-10-22T05:41:19.921Z,11.50
2017-10-22T05:43:47.477Z,11.50
2017-10-22T05:46:14.916Z,11.50
2017-10-22T05:48:43.212Z,11.50
2017-10-22T05:51:11.431Z,11.50
2017-10-22T05:53:38.874Z,11.50
2017-10-22T05:56:06.331Z,11.50
2017-10-22T05:58:33.799Z,11.50
2017-10-22T06:01:01.992Z,11.50
2017-10-22T06:03:29.450Z,11.50
2017-10-22T06:05:56.908Z,11.50
2017-10-22T06:08:26.111Z,11.50
2017-10-22T06:10:53.565Z,11.50
2017-10-22T06:13:21.808Z,11.60
2017-10-22T06:15:49.246Z,11.60
2017-10-22T06:18:17.982Z,11.60
2017-10-22T06:20:46.921Z,11.60
2017-10-22T06:23:14.356Z,11.60
2017-10-22T06:25:41.797Z,11.60
2017-10-22T06:28:09.261Z,11.60
2017-10-22T06:30:36.701Z,11.60
2017-10-22T06:33:04.181Z,11.70
2017-10-22T06:35:32.401Z,11.80
2017-10-22T06:37:59.864Z,11.80
2017-10-22T06:40:27.312Z,11.90
2017-10-22T06:42:54.784Z,11.90
2017-10-22T06:45:22.992Z,12.00
2017-10-22T06:47:50.452Z,12.00
2017-10-22T06:50:17.893Z,12.10
2017-10-22T06:52:45.364Z,12.10
2017-10-22T06:55:12.820Z,12.10
2017-10-22T06:57:41.046Z,12.20
2017-10-22T07:00:08.503Z,12.20
2017-10-22T07:02:35.960Z,12.20
2017-10-22T07:05:04.190Z,12.20
2017-10-22T07:07:31.640Z,12.20
2017-10-22T07:09:59.097Z,12.10
2017-10-22T07:12:26.549Z,12.10
2017-10-22T07:14:54.739Z,12.20
2017-10-22T07:17:22.184Z,12.10
2017-10-22T07:19:49.644Z,12.20
2017-10-22T07:22:17.101Z,12.30
2017-10-22T07:24:44.550Z,12.30
2017-10-22T07:27:11.995Z,12.40
2017-10-22T07:29:39.475Z,12.40
2017-10-22T07:32:06.930Z,12.50
2017-10-22T07:34:34.383Z,12.60
2017-10-22T07:37:01.842Z,12.60
2017-10-22T07:39:29.503Z,12.60
2017-10-22T07:41:57.760Z,12.70
2017-10-22T07:44:25.244Z,12.70
2017-10-22T07:46:53.461Z,12.80
2017-10-22T07:49:20.928Z,12.80
2017-10-22T07:51:49.132Z,12.90
2017-10-22T07:54:16.593Z,12.90
2017-10-22T07:56:44.038Z,13.00
2017-10-22T07:59:11.491Z,13.00
2017-10-22T08:01:39.014Z,13.00
2017-10-22T08:04:06.437Z,13.00
2017-10-22T08:06:33.912Z,13.00
2017-10-22T08:09:01.397Z,13.00
2017-10-22T08:11:28.816Z,13.00
2017-10-22T08:13:56.264Z,12.90
2017-10-22T08:16:23.786Z,12.90
2017-10-22T08:18:51.236Z,12.80
2017-10-22T08:21:18.699Z,12.70
2017-10-22T08:23:46.184Z,12.70
2017-10-22T08:26:14.378Z,12.60
2017-10-22T08:28:42.592Z,12.70
2017-10-22T08:31:10.077Z,12.70
2017-10-22T08:33:37.516Z,12.70
2017-10-22T08:36:04.981Z,12.70
2017-10-22T08:38:32.453Z,12.80
2017-10-22T08:41:00.701Z,12.80
2017-10-22T08:43:28.156Z,12.80
2017-10-22T08:45:56.396Z,13.00
2017-10-22T08:48:23.895Z,12.90
2017-10-22T08:50:51.354Z,13.00
2017-10-22T08:53:18.809Z,13.10
2017-10-22T08:55:46.268Z,13.20
2017-10-22T08:58:13.740Z,13.30
2017-10-22T09:00:41.996Z,13.50
2017-10-22T09:03:10.228Z,13.60
2017-10-22T09:05:37.752Z,13.60
2017-10-22T09:08:05.220Z,13.70
2017-10-22T09:10:32.670Z,13.80
2017-10-22T09:13:00.119Z,13.90
2017-10-22T09:15:27.589Z,13.80
2017-10-22T09:17:55.828Z,14.10
2017-10-22T09:20:24.060Z,14.00
2017-10-22T09:22:51.513Z,14.00
2017-10-22T09:25:18.961Z,13.80
2017-10-22T09:27:46.417Z,13.80
2017-10-22T09:30:16.880Z,13.80
2017-10-22T09:32:41.324Z,13.80
2017-10-22T09:35:09.552Z,13.80
2017-10-22T09:37:42.758Z,13.80
2017-10-22T09:40:10.974Z,14.00
2017-10-22T09:42:38.404Z,14.00
2017-10-22T09:45:05.951Z,14.10
2017-10-22T09:47:33.397Z,14.10
2017-10-22T09:50:00.847Z,14.10
2017-10-22T09:52:28.686Z,14.00
2017-10-22T09:54:56.121Z,13.90
2017-10-22T09:57:23.552Z,13.90
2017-10-22T09:59:51.009Z,13.90
2017-10-22T10:02:19.100Z,14.00
2017-10-22T10:04:46.557Z,14.00
2017-10-22T10:07:14.012Z,13.80
2017-10-22T10:09:42.224Z,13.70
2017-10-22T10:12:09.667Z,13.60
2017-10-22T10:14:37.116Z,13.60
2017-10-22T10:17:04.557Z,13.40
2017-10-22T10:19:32.000Z,13.20
2017-10-22T10:22:00.463Z,13.30
2017-10-22T10:24:27.913Z,13.30
2017-10-22T10:26:55.353Z,13.40
2017-10-22T10:29:22.809Z,13.50
2017-10-22T10:31:50.237Z,13.60
2017-10-22T10:34:17.677Z,13.80
2017-10-22T10:36:45.132Z,13.80
2017-10-22T10:39:12.576Z,13.90
2017-10-22T10:41:40.017Z,14.00
2017-10-22T10:44:07.459Z,14.20
2017-10-22T10:46:34.906Z,14.30
2017-10-22T10:49:02.465Z,14.30
2017-10-22T10:51:29.888Z,14.30
2017-10-22T10:53:57.337Z,14.20
2017-10-22T10:56:24.776Z,14.10
2017-10-22T10:58:52.246Z,14.00
2017-10-22T11:01:20.440Z,14.00
2017-10-22T11:03:48.918Z,14.00
2017-10-22T11:06:17.388Z,14.00
2017-10-22T11:08:44.824Z,13.90
2017-10-22T11:11:12.273Z,13.80
2017-10-22T11:13:39.746Z,13.80
2017-10-22T11:16:07.189Z,13.70
2017-10-22T11:18:34.649Z,13.60
2017-10-22T11:21:02.890Z,13.70
2017-10-22T11:23:30.329Z,13.70
2017-10-22T11:25:57.767Z,13.70
2017-10-22T11:28:25.204Z,13.70
2017-10-22T11:30:52.672Z,13.70
2017-10-22T11:33:20.104Z,13.80
2017-10-22T11:35:47.584Z,13.80
2017-10-22T11:38:15.836Z,13.90
2017-10-22T11:40:44.032Z,13.90
2017-10-22T11:43:11.465Z,13.90
2017-10-22T11:45:38.940Z,14.00
2017-10-22T11:48:06.400Z,14.00
2017-10-22T11:50:33.837Z,14.10
2017-10-22T11:53:01.298Z,14.20
2017-10-22T11:55:29.504Z,14.50
2017-10-22T11:57:56.945Z,14.50
2017-10-22T12:00:24.384Z,14.40
2017-10-22T12:02:51.859Z,14.50
2017-10-22T12:05:19.321Z,14.50
2017-10-22T12:07:47.547Z,14.30
2017-10-22T12:10:14.996Z,14.30
2017-10-22T12:12:42.522Z,14.20
2017-10-22T12:15:09.963Z,14.10
2017-10-22T12:17:37.422Z,14.10
2017-10-22T12:20:04.877Z,14.20
2017-10-22T12:22:32.311Z,14.30
2017-10-22T12:24:59.793Z,14.40
2017-10-22T12:27:27.233Z,14.30
2017-10-22T12:29:55.478Z,14.50
2017-10-22T12:32:22.928Z,14.40
2017-10-22T12:34:50.438Z,14.50
2017-10-22T12:37:17.893Z,14.50
2017-10-22T12:39:45.333Z,14.60
2017-10-22T12:42:12.795Z,14.50
2017-10-22T12:44:40.260Z,14.50
2017-10-22T12:47:08.486Z,14.40
2017-10-22T12:49:35.944Z,14.40
2017-10-22T12:52:03.383Z,14.40
2017-10-22T12:54:30.857Z,14.40
2017-10-22T12:56:58.314Z,14.50
2017-10-22T12:59:25.770Z,14.40
2017-10-22T13:01:56.771Z,14.30
2017-10-22T13:04:24.219Z,14.10
2017-10-22T13:06:51.679Z,14.00
2017-10-22T13:09:19.133Z,14.10
2017-10-22T13:11:46.597Z,14.10
2017-10-22T13:14:14.045Z,14.10
2017-10-22T13:16:41.500Z,14.10
2017-10-22T13:19:08.943Z,14.10
2017-10-22T13:21:36.403Z,14.10
2017-10-22T13:24:04.622Z,14.10
2017-10-22T13:26:32.052Z,14.10
2017-10-22T13:28:59.623Z,14.00
2017-10-22T13:31:27.059Z,14.10
2017-10-22T13:33:54.523Z,14.10
2017-10-22T13:36:22.027Z,14.10
2017-10-22T13:38:49.601Z,14.10
2017-10-22T13:41:17.062Z,14.10
2017-10-22T13:43:44.513Z,14.10
2017-10-22T13:46:12.724Z,14.00
2017-10-22T13:48:40.160Z,14.00
2017-10-22T13:51:07.621Z,13.90
2017-10-22T13:53:35.089Z,13.90
2017-10-22T13:56:02.537Z,13.80
2017-10-22T13:58:30.728Z,13.80
2017-10-22T14:00:58.186Z,13.80
2017-10-22T14:03:25.639Z,13.80
2017-10-22T14:05:53.080Z,13.70
2017-10-22T14:08:20.518Z,13.70
2017-10-22T14:10:47.988Z,13.70
2017-10-22T14:13:15.434Z,13.80
2017-10-22T14:15:42.891Z,13.80
2017-10-22T14:18:11.092Z,13.60
2017-10-22T14:20:38.565Z,13.50
2017-10-22T14:23:06.058Z,13.50
2017-10-22T14:25:33.514Z,13.60
2017-10-22T14:28:00.944Z,13.60
2017-10-22T14:30:29.168Z,13.50
2017-10-22T14:32:56.622Z,13.50
2017-10-22T14:35:24.108Z,13.40
2017-10-22T14:37:51.563Z,13.40
2017-10-22T14:40:19.014Z,13.40
2017-10-22T14:42:46.467Z,13.30
2017-10-22T14:45:13.930Z,13.30
2017-10-22T14:47:41.371Z,13.20
2017-10-22T14:50:08.814Z,13.10
2017-10-22T14:52:36.272Z,13.10
2017-10-22T14:55:04.485Z,13.00
2017-10-22T14:57:31.935Z,13.00
2017-10-22T14:59:59.383Z,12.90
2017-10-22T15:02:26.841Z,12.60
2017-10-22T15:04:54.284Z,12.40
2017-10-22T15:07:21.776Z,12.40
2017-10-22T15:09:49.209Z,12.40
2017-10-22T15:12:16.680Z,12.30
2017-10-22T15:14:44.190Z,12.40
2017-10-22T15:17:12.419Z,12.40
2017-10-22T15:19:39.874Z,12.40
2017-10-22T15:22:07.329Z,12.50
2017-10-22T15:24:35.529Z,12.50
2017-10-22T15:27:03.058Z,12.40
2017-10-22T15:29:31.228Z,12.40
2017-10-22T15:31:58.715Z,12.40
2017-10-22T15:34:26.155Z,12.50
2017-10-22T15:36:53.614Z,12.50
2017-10-22T15:39:21.833Z,12.60
2017-10-22T15:41:49.287Z,12.60
2017-10-22T15:44:16.741Z,12.60
2017-10-22T15:46:44.199Z,12.60
2017-10-22T15:49:11.617Z,12.60
2017-10-22T15:51:39.113Z,12.60
2017-10-22T15:54:06.570Z,12.70
2017-10-22T15:56:34.048Z,12.70
2017-10-22T15:59:01.499Z,12.70
2017-10-22T16:01:28.961Z,12.70
2017-10-22T16:03:57.166Z,12.60
2017-10-22T16:06:24.607Z,12.60
2017-10-22T16:08:52.040Z,12.40
2017-10-22T16:11:19.500Z,12.20
2017-10-22T16:13:46.940Z,12.00
2017-10-22T16:16:14.381Z,11.70
2017-10-22T16:18:41.866Z,11.50
2017-10-22T16:21:09.328Z,11.40
2017-10-22T16:23:37.541Z,11.50
2017-10-22T16:26:05.000Z,11.50
2017-10-22T16:28:32.428Z,11.40
2017-10-22T16:30:59.872Z,11.40
2017-10-22T16:33:27.313Z,11.40
2017-10-22T16:35:54.753Z,11.50
2017-10-22T16:38:22.184Z,11.60
2017-10-22T16:40:49.635Z,11.60
2017-10-22T16:43:17.085Z,11.50
2017-10-22T16:45:44.552Z,11.40
2017-10-22T16:48:12.001Z,11.40
2017-10-22T16:50:39.443Z,11.20
2017-10-22T16:53:07.715Z,10.40
2017-10-22T16:55:35.920Z,10.20
2017-10-22T16:58:03.389Z,10.20
2017-10-22T17:00:31.835Z,10.10
2017-10-22T17:02:59.299Z,10.00
2017-10-22T17:05:26.749Z,10.00
2017-10-22T17:07:54.230Z,10.00
2017-10-22T17:10:21.680Z,9.90
2017-10-22T17:12:49.116Z,9.90
2017-10-22T17:15:16.574Z,9.80
2017-10-22T17:17:44.055Z,9.90
2017-10-22T17:20:11.484Z,9.90
2017-10-22T17:22:38.945Z,9.90
2017-10-22T17:25:06.405Z,9.90
2017-10-22T17:27:33.923Z,9.90
2017-10-22T17:30:01.357Z,9.90
2017-10-22T17:32:28.800Z,10.00
2017-10-22T17:34:56.245Z,10.00
2017-10-22T17:37:23.685Z,10.10
2017-10-22T17:39:51.123Z,10.00
2017-10-22T17:42:19.340Z,10.00
2017-10-22T17:44:46.781Z,10.00
2017-10-22T17:47:15.011Z,10.00
2017-10-22T17:49:42.474Z,10.00
2017-10-22T17:52:10.682Z,10.00
2017-10-22T17:54:38.136Z,9.90
2017-10-22T17:57:05.604Z,9.90
2017-10-22T17:59:33.070Z,10.00
2017-10-22T18:02:01.290Z,10.10
2017-10-22T18:04:28.744Z,10.00
2017-10-22T18:06:56.202Z,10.10
2017-10-22T18:09:24.412Z,10.20
2017-10-22T18:11:51.879Z,10.20
2017-10-22T18:14:19.344Z,10.30
2017-10-22T18:16:46.804Z,10.30
2017-10-22T18:19:14.258Z,10.20
2017-10-22T18:21:41.713Z,10.20
2017-10-22T18:24:09.151Z,10.20
2017-10-22T18:26:36.662Z,10.20
2017-10-22T18:29:04.088Z,10.20
2017-10-22T18:31:31.524Z,10.20
2017-10-22T18:33:58.986Z,10.20
2017-10-22T18:36:26.432Z,10.10
2017-10-22T18:38:54.657Z,10.10
2017-10-22T18:41:22.092Z,10.10
2017-10-22T18:43:50.106Z,10.10
2017-10-22T18:46:18.313Z,10.00
2017-10-22T18:48:45.789Z,10.00
2017-10-22T18:51:13.268Z,9.90
2017-10-22T18:53:40.692Z,9.80
2017-10-22T18:56:08.927Z,9.80
2017-10-22T18:58:36.401Z,9.80
2017-10-22T19:01:03.917Z,9.90
2017-10-22T19:03:31.356Z,9.90
2017-10-22T19:05:58.799Z,9.90
2017-10-22T19:08:26.244Z,9.90
2017-10-22T19:10:53.713Z,9.90
2017-10-22T19:13:21.939Z,10.00
2017-10-22T19:15:49.549Z,10.00
2017-10-22T19:18:17.016Z,10.00
2017-10-22T19:20:44.457Z,10.00
2017-10-22T19:23:11.940Z,10.00
2017-10-22T19:25:39.380Z,10.10
2017-10-22T19:28:06.841Z,10.10
2017-10-22T19:30:35.072Z,10.00
2017-10-22T19:33:02.531Z,10.00
2017-10-22T19:35:29.973Z,10.10
2017-10-22T19:37:58.199Z,10.00
2017-10-22T19:40:26.633Z,10.00
2017-10-22T19:42:54.100Z,10.00
2017-10-22T19:45:21.581Z,10.00
2017-10-22T19:47:49.032Z,10.10
2017-10-22T19:50:17.242Z,10.00
2017-10-22T19:52:44.684Z,10.00
2017-10-22T19:55:12.140Z,10.00
2017-10-22T19:57:39.580Z,10.00
2017-10-22T20:00:07.044Z,9.90
2017-10-22T20:02:34.496Z,9.90
2017-10-22T20:05:02.015Z,9.90
2017-10-22T20:07:29.479Z,9.90
2017-10-22T20:09:56.928Z,10.00
2017-10-22T20:12:25.137Z,9.90
2017-10-22T20:14:52.597Z,9.90
2017-10-22T20:17:20.247Z,10.00
2017-10-22T20:19:47.684Z,10.00
2017-10-22T20:22:15.135Z,10.00
2017-10-22T20:24:42.604Z,10.10
2017-10-22T20:27:10.065Z,10.10
2017-10-22T20:29:38.276Z,10.10
2017-10-22T20:32:06.480Z,10.00
2017-10-22T20:34:34.708Z,10.00
2017-10-22T20:37:02.164Z,10.00
2017-10-22T20:39:29.617Z,9.90
2017-10-22T20:41:57.833Z,9.90
2017-10-22T20:44:25.271Z,9.90
2017-10-22T20:46:52.707Z,9.90
2017-10-22T20:49:20.174Z,9.80
2017-10-22T20:51:47.626Z,9.80
2017-10-22T20:54:15.816Z,9.70
2017-10-22T20:56:44.017Z,9.80
2017-10-22T20:59:11.496Z,9.80
2017-10-22T21:01:38.924Z,9.80
2017-10-22T21:04:06.370Z,9.80
2017-10-22T21:06:33.817Z,9.80
2017-10-22T21:09:01.255Z,9.80
2017-10-22T21:11:28.694Z,9.80
2017-10-22T21:13:56.141Z,9.70
2017-10-22T21:16:23.572Z,9.70
2017-10-22T21:18:51.074Z,9.70
2017-10-22T21:21:18.486Z,9.70
2017-10-22T21:23:45.921Z,9.70
2017-10-22T21:26:13.361Z,9.70
2017-10-22T21:28:40.814Z,9.70
2017-10-22T21:31:08.248Z,9.60
2017-10-22T21:33:35.688Z,9.60
2017-10-22T21:36:03.129Z,9.70
2017-10-22T21:38:30.596Z,9.80
2017-10-22T21:40:58.806Z,9.60
2017-10-22T21:43:26.265Z,9.60
2017-10-22T21:45:53.716Z,9.70
2017-10-22T21:48:21.248Z,9.70
2017-10-22T21:50:48.668Z,9.70
2017-10-22T21:53:16.104Z,9.80
2017-10-22T21:55:43.540Z,9.80
2017-10-22T21:58:10.986Z,9.70
2017-10-22T22:00:38.427Z,9.70
2017-10-22T22:03:05.943Z,9.70
2017-10-22T22:05:34.149Z,9.80
2017-10-22T22:08:01.591Z,9.80
2017-10-22T22:10:29.121Z,9.70
2017-10-22T22:12:56.556Z,9.70
2017-10-22T22:15:23.985Z,9.70
2017-10-22T22:17:52.198Z,9.70
2017-10-22T22:20:19.628Z,9.70
2017-10-22T22:22:47.074Z,9.70
2017-10-22T22:25:14.516Z,9.70
2017-10-22T22:27:41.943Z,9.80
2017-10-22T22:30:09.381Z,9.80
2017-10-22T22:32:36.813Z,9.70
2017-10-22T22:35:04.255Z,9.80
2017-10-22T22:37:31.695Z,9.80
2017-10-22T22:39:59.135Z,9.80
2017-10-22T22:42:26.576Z,9.70
2017-10-22T22:44:54.803Z,9.80
2017-10-22T22:47:22.242Z,9.80
2017-10-22T22:49:49.733Z,9.80
2017-10-22T22:52:17.157Z,9.80
2017-10-22T22:54:45.378Z,9.80
2017-10-22T22:57:12.805Z,9.80
2017-10-22T22:59:40.260Z,9.70
2017-10-22T23:02:07.803Z,9.70
2017-10-22T23:04:35.232Z,9.60
2017-10-22T23:07:02.680Z,9.60
2017-10-22T23:09:30.124Z,9.60
2017-10-22T23:11:57.564Z,9.60
2017-10-22T23:14:25.015Z,9.60
2017-10-22T23:16:52.458Z,9.60
2017-10-22T23:19:19.902Z,9.60
2017-10-22T23:21:48.098Z,9.60
2017-10-22T23:24:16.317Z,9.60
2017-10-22T23:26:43.740Z,9.60
2017-10-22T23:29:11.186Z,9.60
2017-10-22T23:31:38.633Z,9.60
2017-10-22T23:34:06.076Z,9.60
2017-10-22T23:36:33.511Z,9.60
2017-10-22T23:39:00.943Z,9.60
2017-10-22T23:41:28.381Z,9.60
2017-10-22T23:43:55.828Z,9.60
2017-10-22T23:46:23.268Z,9.50
2017-10-22T23:48:50.715Z,9.50
2017-10-22T23:51:18.148Z,9.50
2017-10-22T23:53:45.740Z,9.50
2017-10-22T23:56:13.152Z,9.50
2017-10-22T23:58:40.596Z,9.50
